Afton, Michigan
Current Conditions -  °F | °C
As of 3:36 AM on Sunday 26 Oct 2014 (Local Time) from KSLH Reporting Station
Clear Clear  
Wind Chill: 40°   Ceiling: Unl
Heat Index: 47°   Visibility: 10mi
Dew Point: 35°   Wind: 17mph
Humidity: 63%   Direction: 310°NW
Pressure: 29.8"   Gusts: 32mph
Location:  45.36°N, 84.47°W
Report Text: KSLH 260736Z AUTO 31015G28KT 10SM CLR 08/01 A2980 RMK AO2 T00810014
Loading
Personal Weather Stations






























Interactive Weather Map
Tropical Storm Tracking
New forecast layout! Learn more

10-Day Weather Forecast

Advertisements
Track Severe Weather on mobile